sensor_id;sensor_type;location;lat;lon;timestamp;P1;durP1;ratioP1;P2;durP2;ratioP2
11490;SDS011;5802;52.832;4.758;2023-05-07T00:01:22;3.60;;;2.00;;
11490;SDS011;5802;52.832;4.758;2023-05-07T00:03:49;3.38;;;2.10;;
11490;SDS011;5802;52.832;4.758;2023-05-07T00:06:16;6.80;;;2.10;;
11490;SDS011;5802;52.832;4.758;2023-05-07T00:08:45;2.95;;;2.38;;
11490;SDS011;5802;52.832;4.758;2023-05-07T00:11:12;5.40;;;2.28;;
11490;SDS011;5802;52.832;4.758;2023-05-07T00:13:39;4.40;;;2.05;;
11490;SDS011;5802;52.832;4.758;2023-05-07T00:16:05;4.18;;;2.00;;
11490;SDS011;5802;52.832;4.758;2023-05-07T00:18:32;4.35;;;2.03;;
11490;SDS011;5802;52.832;4.758;2023-05-07T00:20:59;4.40;;;2.30;;
11490;SDS011;5802;52.832;4.758;2023-05-07T00:23:25;4.32;;;1.90;;
11490;SDS011;5802;52.832;4.758;2023-05-07T00:25:53;3.55;;;2.03;;
11490;SDS011;5802;52.832;4.758;2023-05-07T00:28:20;5.03;;;2.38;;
11490;SDS011;5802;52.832;4.758;2023-05-07T00:30:46;2.65;;;1.73;;
11490;SDS011;5802;52.832;4.758;2023-05-07T00:33:13;4.22;;;1.90;;
11490;SDS011;5802;52.832;4.758;2023-05-07T00:35:40;4.57;;;1.75;;
11490;SDS011;5802;52.832;4.758;2023-05-07T00:38:07;4.60;;;2.08;;
11490;SDS011;5802;52.832;4.758;2023-05-07T00:40:34;3.83;;;1.90;;
11490;SDS011;5802;52.832;4.758;2023-05-07T00:43:02;3.80;;;1.90;;
11490;SDS011;5802;52.832;4.758;2023-05-07T00:45:29;2.65;;;1.90;;
11490;SDS011;5802;52.832;4.758;2023-05-07T00:47:57;2.28;;;1.75;;
11490;SDS011;5802;52.832;4.758;2023-05-07T00:50:25;3.75;;;1.75;;
11490;SDS011;5802;52.832;4.758;2023-05-07T00:52:53;3.38;;;2.13;;
11490;SDS011;5802;52.832;4.758;2023-05-07T00:55:20;4.03;;;2.10;;
11490;SDS011;5802;52.832;4.758;2023-05-07T00:57:48;2.40;;;1.85;;
11490;SDS011;5802;52.832;4.758;2023-05-07T01:00:17;2.40;;;1.50;;
11490;SDS011;5802;52.832;4.758;2023-05-07T01:02:44;3.10;;;1.70;;
11490;SDS011;5802;52.832;4.758;2023-05-07T01:05:12;2.28;;;1.52;;
11490;SDS011;5802;52.832;4.758;2023-05-07T01:07:40;4.45;;;1.80;;
11490;SDS011;5802;52.832;4.758;2023-05-07T01:10:08;2.63;;;1.90;;
11490;SDS011;5802;52.832;4.758;2023-05-07T01:12:36;2.40;;;1.60;;
11490;SDS011;5802;52.832;4.758;2023-05-07T01:15:04;2.58;;;1.60;;
11490;SDS011;5802;52.832;4.758;2023-05-07T01:17:35;2.60;;;1.70;;
11490;SDS011;5802;52.832;4.758;2023-05-07T01:20:03;3.45;;;1.80;;
11490;SDS011;5802;52.832;4.758;2023-05-07T01:22:33;2.72;;;1.73;;
11490;SDS011;5802;52.832;4.758;2023-05-07T01:25:01;2.03;;;1.60;;
11490;SDS011;5802;52.832;4.758;2023-05-07T01:27:29;2.13;;;1.80;;
11490;SDS011;5802;52.832;4.758;2023-05-07T01:29:58;1.98;;;1.30;;
11490;SDS011;5802;52.832;4.758;2023-05-07T01:32:33;2.10;;;1.58;;
11490;SDS011;5802;52.832;4.758;2023-05-07T01:35:10;2.38;;;1.63;;
11490;SDS011;5802;52.832;4.758;2023-05-07T01:37:39;2.70;;;1.80;;
11490;SDS011;5802;52.832;4.758;2023-05-07T01:40:07;2.97;;;1.50;;
11490;SDS011;5802;52.832;4.758;2023-05-07T01:42:34;1.88;;;1.60;;
11490;SDS011;5802;52.832;4.758;2023-05-07T01:45:01;2.10;;;1.50;;
11490;SDS011;5802;52.832;4.758;2023-05-07T01:47:28;3.83;;;1.67;;
11490;SDS011;5802;52.832;4.758;2023-05-07T01:49:56;3.75;;;1.70;;
11490;SDS011;5802;52.832;4.758;2023-05-07T01:52:23;2.20;;;1.30;;
11490;SDS011;5802;52.832;4.758;2023-05-07T01:54:51;3.45;;;1.50;;
11490;SDS011;5802;52.832;4.758;2023-05-07T01:57:18;2.13;;;1.48;;
11490;SDS011;5802;52.832;4.758;2023-05-07T01:59:45;3.63;;;1.80;;
11490;SDS011;5802;52.832;4.758;2023-05-07T02:02:12;2.60;;;1.77;;
11490;SDS011;5802;52.832;4.758;2023-05-07T02:04:39;2.00;;;1.42;;
11490;SDS011;5802;52.832;4.758;2023-05-07T02:07:05;2.38;;;1.63;;
11490;SDS011;5802;52.832;4.758;2023-05-07T02:09:32;2.35;;;1.63;;
11490;SDS011;5802;52.832;4.758;2023-05-07T02:12:00;1.95;;;1.40;;
11490;SDS011;5802;52.832;4.758;2023-05-07T02:14:27;1.88;;;1.50;;
11490;SDS011;5802;52.832;4.758;2023-05-07T02:16:56;1.83;;;1.52;;
11490;SDS011;5802;52.832;4.758;2023-05-07T02:19:23;4.25;;;1.40;;
11490;SDS011;5802;52.832;4.758;2023-05-07T02:21:53;2.20;;;1.45;;
11490;SDS011;5802;52.832;4.758;2023-05-07T02:24:20;3.05;;;1.50;;
11490;SDS011;5802;52.832;4.758;2023-05-07T02:26:47;1.58;;;1.48;;
11490;SDS011;5802;52.832;4.758;2023-05-07T02:29:15;2.40;;;1.42;;
11490;SDS011;5802;52.832;4.758;2023-05-07T02:31:42;1.73;;;1.52;;
11490;SDS011;5802;52.832;4.758;2023-05-07T02:34:08;1.70;;;1.50;;
11490;SDS011;5802;52.832;4.758;2023-05-07T02:36:35;2.38;;;1.58;;
11490;SDS011;5802;52.832;4.758;2023-05-07T02:39:02;1.55;;;1.40;;
11490;SDS011;5802;52.832;4.758;2023-05-07T02:41:29;2.60;;;1.48;;
11490;SDS011;5802;52.832;4.758;2023-05-07T02:43:57;1.85;;;1.52;;
11490;SDS011;5802;52.832;4.758;2023-05-07T02:46:25;1.90;;;1.70;;
11490;SDS011;5802;52.832;4.758;2023-05-07T02:48:51;1.98;;;1.58;;
11490;SDS011;5802;52.832;4.758;2023-05-07T02:51:19;1.80;;;1.30;;
11490;SDS011;5802;52.832;4.758;2023-05-07T02:53:46;1.60;;;1.45;;
11490;SDS011;5802;52.832;4.758;2023-05-07T02:56:13;2.05;;;1.50;;
11490;SDS011;5802;52.832;4.758;2023-05-07T02:58:40;1.50;;;1.40;;
11490;SDS011;5802;52.832;4.758;2023-05-07T03:01:08;1.50;;;1.38;;
11490;SDS011;5802;52.832;4.758;2023-05-07T03:03:36;2.05;;;1.60;;
11490;SDS011;5802;52.832;4.758;2023-05-07T03:06:04;1.60;;;1.33;;
11490;SDS011;5802;52.832;4.758;2023-05-07T03:08:31;1.98;;;1.58;;
11490;SDS011;5802;52.832;4.758;2023-05-07T03:10:58;1.98;;;1.73;;
11490;SDS011;5802;52.832;4.758;2023-05-07T03:13:25;2.42;;;1.60;;
11490;SDS011;5802;52.832;4.758;2023-05-07T03:15:52;1.98;;;1.50;;
11490;SDS011;5802;52.832;4.758;2023-05-07T03:18:19;1.50;;;1.40;;
11490;SDS011;5802;52.832;4.758;2023-05-07T03:20:47;3.78;;;1.48;;
11490;SDS011;5802;52.832;4.758;2023-05-07T03:23:19;1.45;;;1.35;;
11490;SDS011;5802;52.832;4.758;2023-05-07T03:25:45;2.38;;;1.35;;
11490;SDS011;5802;52.832;4.758;2023-05-07T03:28:20;1.88;;;1.55;;
11490;SDS011;5802;52.832;4.758;2023-05-07T03:30:46;1.85;;;1.50;;
11490;SDS011;5802;52.832;4.758;2023-05-07T03:33:13;1.90;;;1.48;;
11490;SDS011;5802;52.832;4.758;2023-05-07T03:35:40;2.95;;;1.60;;
11490;SDS011;5802;52.832;4.758;2023-05-07T03:38:08;1.60;;;1.30;;
11490;SDS011;5802;52.832;4.758;2023-05-07T03:40:35;1.40;;;1.30;;
11490;SDS011;5802;52.832;4.758;2023-05-07T03:43:02;2.28;;;1.42;;
11490;SDS011;5802;52.832;4.758;2023-05-07T03:45:28;2.10;;;1.42;;
11490;SDS011;5802;52.832;4.758;2023-05-07T03:47:55;1.20;;;1.10;;
11490;SDS011;5802;52.832;4.758;2023-05-07T03:50:22;1.88;;;1.30;;
11490;SDS011;5802;52.832;4.758;2023-05-07T03:52:48;2.53;;;1.48;;
11490;SDS011;5802;52.832;4.758;2023-05-07T03:55:16;1.77;;;1.50;;
11490;SDS011;5802;52.832;4.758;2023-05-07T03:57:43;2.13;;;1.38;;
11490;SDS011;5802;52.832;4.758;2023-05-07T04:00:10;1.50;;;1.40;;
11490;SDS011;5802;52.832;4.758;2023-05-07T04:02:38;2.03;;;1.40;;
11490;SDS011;5802;52.832;4.758;2023-05-07T04:05:04;2.33;;;1.40;;
11490;SDS011;5802;52.832;4.758;2023-05-07T04:07:31;1.52;;;1.42;;
11490;SDS011;5802;52.832;4.758;2023-05-07T04:09:58;2.58;;;1.50;;
11490;SDS011;5802;52.832;4.758;2023-05-07T04:12:26;2.05;;;1.55;;
11490;SDS011;5802;52.832;4.758;2023-05-07T04:14:53;2.00;;;1.50;;
11490;SDS011;5802;52.832;4.758;2023-05-07T04:17:19;1.40;;;1.30;;
11490;SDS011;5802;52.832;4.758;2023-05-07T04:19:46;1.45;;;1.35;;
11490;SDS011;5802;52.832;4.758;2023-05-07T04:22:13;2.20;;;1.65;;
11490;SDS011;5802;52.832;4.758;2023-05-07T04:24:40;1.83;;;1.60;;
11490;SDS011;5802;52.832;4.758;2023-05-07T04:27:07;1.30;;;1.20;;
11490;SDS011;5802;52.832;4.758;2023-05-07T04:29:35;1.75;;;1.40;;
11490;SDS011;5802;52.832;4.758;2023-05-07T04:32:03;2.38;;;1.55;;
11490;SDS011;5802;52.832;4.758;2023-05-07T04:34:30;1.42;;;1.33;;
11490;SDS011;5802;52.832;4.758;2023-05-07T04:36:58;1.92;;;1.55;;
11490;SDS011;5802;52.832;4.758;2023-05-07T04:39:28;1.77;;;1.42;;
11490;SDS011;5802;52.832;4.758;2023-05-07T04:41:55;1.83;;;1.58;;
11490;SDS011;5802;52.832;4.758;2023-05-07T04:44:22;2.00;;;1.38;;
11490;SDS011;5802;52.832;4.758;2023-05-07T04:46:51;1.92;;;1.50;;
11490;SDS011;5802;52.832;4.758;2023-05-07T04:49:17;3.10;;;1.33;;
11490;SDS011;5802;52.832;4.758;2023-05-07T04:51:44;1.70;;;1.30;;
11490;SDS011;5802;52.832;4.758;2023-05-07T04:54:11;1.33;;;1.23;;
11490;SDS011;5802;52.832;4.758;2023-05-07T04:56:38;3.20;;;1.40;;
11490;SDS011;5802;52.832;4.758;2023-05-07T04:59:05;1.40;;;1.17;;
11490;SDS011;5802;52.832;4.758;2023-05-07T05:01:31;1.50;;;1.30;;
11490;SDS011;5802;52.832;4.758;2023-05-07T05:03:59;1.40;;;1.30;;
11490;SDS011;5802;52.832;4.758;2023-05-07T05:06:26;2.15;;;1.40;;
11490;SDS011;5802;52.832;4.758;2023-05-07T05:08:52;1.65;;;1.30;;
11490;SDS011;5802;52.832;4.758;2023-05-07T05:11:19;1.95;;;1.30;;
11490;SDS011;5802;52.832;4.758;2023-05-07T05:13:46;2.97;;;1.20;;
11490;SDS011;5802;52.832;4.758;2023-05-07T05:16:14;1.58;;;1.30;;
11490;SDS011;5802;52.832;4.758;2023-05-07T05:18:40;1.20;;;1.10;;
11490;SDS011;5802;52.832;4.758;2023-05-07T05:21:08;1.73;;;1.40;;
11490;SDS011;5802;52.832;4.758;2023-05-07T05:23:35;1.42;;;1.17;;
11490;SDS011;5802;52.832;4.758;2023-05-07T05:26:03;2.35;;;1.17;;
11490;SDS011;5802;52.832;4.758;2023-05-07T05:28:29;1.70;;;1.30;;
11490;SDS011;5802;52.832;4.758;2023-05-07T05:30:56;2.10;;;1.20;;
11490;SDS011;5802;52.832;4.758;2023-05-07T05:33:23;1.38;;;1.27;;
11490;SDS011;5802;52.832;4.758;2023-05-07T05:35:49;1.70;;;1.20;;
11490;SDS011;5802;52.832;4.758;2023-05-07T05:38:17;1.90;;;1.35;;
11490;SDS011;5802;52.832;4.758;2023-05-07T05:40:45;2.85;;;1.10;;
11490;SDS011;5802;52.832;4.758;2023-05-07T05:43:13;1.27;;;1.10;;
11490;SDS011;5802;52.832;4.758;2023-05-07T05:45:39;1.45;;;1.25;;
11490;SDS011;5802;52.832;4.758;2023-05-07T05:48:06;1.60;;;1.30;;
11490;SDS011;5802;52.832;4.758;2023-05-07T05:50:33;1.30;;;1.20;;
11490;SDS011;5802;52.832;4.758;2023-05-07T05:53:01;1.45;;;1.20;;
11490;SDS011;5802;52.832;4.758;2023-05-07T05:55:29;2.33;;;1.05;;
11490;SDS011;5802;52.832;4.758;2023-05-07T05:57:57;1.65;;;1.13;;
11490;SDS011;5802;52.832;4.758;2023-05-07T06:00:24;1.38;;;1.27;;
11490;SDS011;5802;52.832;4.758;2023-05-07T06:02:51;1.63;;;1.20;;
11490;SDS011;5802;52.832;4.758;2023-05-07T06:05:18;1.25;;;1.15;;
11490;SDS011;5802;52.832;4.758;2023-05-07T06:07:44;1.20;;;1.10;;
11490;SDS011;5802;52.832;4.758;2023-05-07T06:10:11;1.20;;;1.10;;
11490;SDS011;5802;52.832;4.758;2023-05-07T06:12:41;1.40;;;1.15;;
11490;SDS011;5802;52.832;4.758;2023-05-07T06:15:08;1.30;;;1.20;;
11490;SDS011;5802;52.832;4.758;2023-05-07T06:17:38;1.73;;;1.27;;
11490;SDS011;5802;52.832;4.758;2023-05-07T06:20:05;2.33;;;1.02;;
11490;SDS011;5802;52.832;4.758;2023-05-07T06:22:33;1.48;;;1.35;;
11490;SDS011;5802;52.832;4.758;2023-05-07T06:25:00;1.27;;;1.17;;
11490;SDS011;5802;52.832;4.758;2023-05-07T06:27:27;1.58;;;1.17;;
11490;SDS011;5802;52.832;4.758;2023-05-07T06:29:55;1.58;;;1.20;;
11490;SDS011;5802;52.832;4.758;2023-05-07T06:32:22;1.25;;;1.15;;
11490;SDS011;5802;52.832;4.758;2023-05-07T06:34:48;1.52;;;1.25;;
11490;SDS011;5802;52.832;4.758;2023-05-07T06:37:15;1.70;;;1.40;;
11490;SDS011;5802;52.832;4.758;2023-05-07T06:39:42;1.30;;;1.20;;
11490;SDS011;5802;52.832;4.758;2023-05-07T06:42:08;1.40;;;1.15;;
11490;SDS011;5802;52.832;4.758;2023-05-07T06:44:35;1.52;;;1.40;;
11490;SDS011;5802;52.832;4.758;2023-05-07T06:47:03;1.98;;;1.60;;
11490;SDS011;5802;52.832;4.758;2023-05-07T06:49:30;2.83;;;1.60;;
11490;SDS011;5802;52.832;4.758;2023-05-07T06:51:57;1.27;;;1.17;;
11490;SDS011;5802;52.832;4.758;2023-05-07T06:54:24;1.63;;;1.30;;
11490;SDS011;5802;52.832;4.758;2023-05-07T06:56:51;2.17;;;1.63;;
11490;SDS011;5802;52.832;4.758;2023-05-07T06:59:18;1.85;;;1.50;;
11490;SDS011;5802;52.832;4.758;2023-05-07T07:01:45;2.25;;;1.50;;
11490;SDS011;5802;52.832;4.758;2023-05-07T07:04:13;1.50;;;1.40;;
11490;SDS011;5802;52.832;4.758;2023-05-07T07:06:39;1.63;;;1.52;;
11490;SDS011;5802;52.832;4.758;2023-05-07T07:09:06;1.65;;;1.55;;
11490;SDS011;5802;52.832;4.758;2023-05-07T07:11:33;1.40;;;1.30;;
11490;SDS011;5802;52.832;4.758;2023-05-07T07:14:00;1.50;;;1.40;;
11490;SDS011;5802;52.832;4.758;2023-05-07T07:16:26;2.38;;;1.77;;
11490;SDS011;5802;52.832;4.758;2023-05-07T07:18:53;5.65;;;1.92;;
11490;SDS011;5802;52.832;4.758;2023-05-07T07:21:21;3.10;;;1.90;;
11490;SDS011;5802;52.832;4.758;2023-05-07T07:23:48;2.85;;;1.92;;
11490;SDS011;5802;52.832;4.758;2023-05-07T07:26:14;3.30;;;1.92;;
11490;SDS011;5802;52.832;4.758;2023-05-07T07:28:42;1.45;;;1.35;;
11490;SDS011;5802;52.832;4.758;2023-05-07T07:31:09;3.65;;;1.90;;
11490;SDS011;5802;52.832;4.758;2023-05-07T07:33:36;1.52;;;1.40;;
11490;SDS011;5802;52.832;4.758;2023-05-07T07:36:03;8.05;;;1.70;;
11490;SDS011;5802;52.832;4.758;2023-05-07T07:38:32;7.47;;;2.08;;
11490;SDS011;5802;52.832;4.758;2023-05-07T07:40:59;7.10;;;2.05;;
11490;SDS011;5802;52.832;4.758;2023-05-07T07:43:26;4.18;;;2.25;;
11490;SDS011;5802;52.832;4.758;2023-05-07T07:45:52;4.18;;;2.33;;
11490;SDS011;5802;52.832;4.758;2023-05-07T07:48:19;4.10;;;2.30;;
11490;SDS011;5802;52.832;4.758;2023-05-07T07:50:48;7.72;;;3.13;;
11490;SDS011;5802;52.832;4.758;2023-05-07T07:53:15;9.75;;;3.03;;
11490;SDS011;5802;52.832;4.758;2023-05-07T07:55:43;6.63;;;2.95;;
11490;SDS011;5802;52.832;4.758;2023-05-07T07:58:09;8.38;;;4.05;;
11490;SDS011;5802;52.832;4.758;2023-05-07T08:00:36;6.28;;;3.30;;
11490;SDS011;5802;52.832;4.758;2023-05-07T08:03:03;7.40;;;3.63;;
11490;SDS011;5802;52.832;4.758;2023-05-07T08:05:30;4.40;;;3.40;;
11490;SDS011;5802;52.832;4.758;2023-05-07T08:07:56;4.93;;;3.28;;
11490;SDS011;5802;52.832;4.758;2023-05-07T08:10:23;7.63;;;3.40;;
11490;SDS011;5802;52.832;4.758;2023-05-07T08:12:51;4.93;;;3.42;;
11490;SDS011;5802;52.832;4.758;2023-05-07T08:15:18;5.45;;;3.72;;
11490;SDS011;5802;52.832;4.758;2023-05-07T08:17:45;3.55;;;3.25;;
11490;SDS011;5802;52.832;4.758;2023-05-07T08:20:11;5.15;;;3.38;;
11490;SDS011;5802;52.832;4.758;2023-05-07T08:22:38;4.18;;;3.08;;
11490;SDS011;5802;52.832;4.758;2023-05-07T08:25:05;3.90;;;3.08;;
11490;SDS011;5802;52.832;4.758;2023-05-07T08:27:32;8.52;;;3.10;;
11490;SDS011;5802;52.832;4.758;2023-05-07T08:30:00;3.63;;;2.80;;
11490;SDS011;5802;52.832;4.758;2023-05-07T08:32:27;3.47;;;2.75;;
11490;SDS011;5802;52.832;4.758;2023-05-07T08:34:54;3.65;;;2.58;;
11490;SDS011;5802;52.832;4.758;2023-05-07T08:37:20;3.25;;;2.75;;
11490;SDS011;5802;52.832;4.758;2023-05-07T08:39:47;2.83;;;2.58;;
11490;SDS011;5802;52.832;4.758;2023-05-07T08:42:14;4.18;;;3.10;;
11490;SDS011;5802;52.832;4.758;2023-05-07T08:44:43;4.95;;;2.80;;
11490;SDS011;5802;52.832;4.758;2023-05-07T08:47:13;3.17;;;2.88;;
11490;SDS011;5802;52.832;4.758;2023-05-07T08:49:39;5.03;;;2.90;;
11490;SDS011;5802;52.832;4.758;2023-05-07T08:52:06;3.70;;;2.85;;
11490;SDS011;5802;52.832;4.758;2023-05-07T08:54:33;2.88;;;2.58;;
11490;SDS011;5802;52.832;4.758;2023-05-07T08:57:01;4.47;;;2.90;;
11490;SDS011;5802;52.832;4.758;2023-05-07T08:59:27;4.18;;;3.03;;
11490;SDS011;5802;52.832;4.758;2023-05-07T09:01:54;3.58;;;2.92;;
11490;SDS011;5802;52.832;4.758;2023-05-07T09:04:22;4.05;;;3.65;;
11490;SDS011;5802;52.832;4.758;2023-05-07T09:06:49;4.68;;;4.20;;
11490;SDS011;5802;52.832;4.758;2023-05-07T09:09:16;5.65;;;5.05;;
11490;SDS011;5802;52.832;4.758;2023-05-07T09:11:44;6.00;;;5.40;;
11490;SDS011;5802;52.832;4.758;2023-05-07T09:14:10;6.82;;;5.03;;
11490;SDS011;5802;52.832;4.758;2023-05-07T09:16:37;6.00;;;5.40;;
11490;SDS011;5802;52.832;4.758;2023-05-07T09:19:04;7.38;;;5.57;;
11490;SDS011;5802;52.832;4.758;2023-05-07T09:21:32;7.28;;;6.47;;
11490;SDS011;5802;52.832;4.758;2023-05-07T09:23:59;7.80;;;6.28;;
11490;SDS011;5802;52.832;4.758;2023-05-07T09:26:26;8.07;;;5.85;;
11490;SDS011;5802;52.832;4.758;2023-05-07T09:28:53;7.38;;;6.25;;
11490;SDS011;5802;52.832;4.758;2023-05-07T09:31:20;6.07;;;5.47;;
11490;SDS011;5802;52.832;4.758;2023-05-07T09:33:48;7.30;;;5.93;;
11490;SDS011;5802;52.832;4.758;2023-05-07T09:36:15;8.32;;;6.40;;
11490;SDS011;5802;52.832;4.758;2023-05-07T09:38:43;6.30;;;5.60;;
11490;SDS011;5802;52.832;4.758;2023-05-07T09:41:12;10.90;;;6.88;;
11490;SDS011;5802;52.832;4.758;2023-05-07T09:43:39;8.80;;;7.30;;
11490;SDS011;5802;52.832;4.758;2023-05-07T09:46:07;6.60;;;5.95;;
11490;SDS011;5802;52.832;4.758;2023-05-07T09:48:38;6.85;;;5.63;;
11490;SDS011;5802;52.832;4.758;2023-05-07T09:51:08;14.20;;;6.95;;
11490;SDS011;5802;52.832;4.758;2023-05-07T09:53:41;8.07;;;6.32;;
11490;SDS011;5802;52.832;4.758;2023-05-07T09:56:11;10.50;;;7.25;;
11490;SDS011;5802;52.832;4.758;2023-05-07T09:58:39;8.40;;;6.97;;
11490;SDS011;5802;52.832;4.758;2023-05-07T10:01:10;7.95;;;7.15;;
11490;SDS011;5802;52.832;4.758;2023-05-07T10:03:39;9.57;;;7.80;;
11490;SDS011;5802;52.832;4.758;2023-05-07T10:06:07;9.95;;;7.22;;
11490;SDS011;5802;52.832;4.758;2023-05-07T10:08:35;8.65;;;7.28;;
11490;SDS011;5802;52.832;4.758;2023-05-07T10:11:03;9.68;;;7.57;;
11490;SDS011;5802;52.832;4.758;2023-05-07T10:13:32;12.90;;;8.52;;
11490;SDS011;5802;52.832;4.758;2023-05-07T10:16:01;9.27;;;8.27;;
11490;SDS011;5802;52.832;4.758;2023-05-07T10:18:28;8.95;;;8.05;;
11490;SDS011;5802;52.832;4.758;2023-05-07T10:20:59;9.02;;;7.78;;
11490;SDS011;5802;52.832;4.758;2023-05-07T10:23:29;10.95;;;7.60;;
11490;SDS011;5802;52.832;4.758;2023-05-07T10:25:58;11.63;;;7.72;;
11490;SDS011;5802;52.832;4.758;2023-05-07T10:28:29;10.38;;;7.63;;
11490;SDS011;5802;52.832;4.758;2023-05-07T10:31:03;9.13;;;7.05;;
11490;SDS011;5802;52.832;4.758;2023-05-07T10:33:36;10.52;;;7.32;;
11490;SDS011;5802;52.832;4.758;2023-05-07T10:36:05;7.60;;;6.75;;
11490;SDS011;5802;52.832;4.758;2023-05-07T10:38:33;9.82;;;6.47;;
11490;SDS011;5802;52.832;4.758;2023-05-07T10:41:00;7.05;;;6.35;;
11490;SDS011;5802;52.832;4.758;2023-05-07T10:43:39;6.97;;;6.28;;
11490;SDS011;5802;52.832;4.758;2023-05-07T10:46:10;7.28;;;6.22;;
11490;SDS011;5802;52.832;4.758;2023-05-07T10:51:39;7.38;;;6.30;;
11490;SDS011;5802;52.832;4.758;2023-05-07T10:54:18;9.90;;;6.25;;
11490;SDS011;5802;52.832;4.758;2023-05-07T10:56:46;8.15;;;6.80;;
11490;SDS011;5802;52.832;4.758;2023-05-07T10:59:33;7.88;;;6.53;;
11490;SDS011;5802;52.832;4.758;2023-05-07T11:02:07;9.05;;;6.18;;
11490;SDS011;5802;52.832;4.758;2023-05-07T11:04:36;6.75;;;6.10;;
11490;SDS011;5802;52.832;4.758;2023-05-07T11:07:21;7.40;;;6.05;;
11490;SDS011;5802;52.832;4.758;2023-05-07T11:09:54;6.43;;;5.63;;
11490;SDS011;5802;52.832;4.758;2023-05-07T11:18:18;7.85;;;6.15;;
11490;SDS011;5802;52.832;4.758;2023-05-07T11:20:51;6.43;;;5.68;;
11490;SDS011;5802;52.832;4.758;2023-05-07T11:26:27;7.25;;;6.50;;
11490;SDS011;5802;52.832;4.758;2023-05-07T11:28:56;10.07;;;5.95;;
11490;SDS011;5802;52.832;4.758;2023-05-07T11:31:27;7.80;;;6.05;;
11490;SDS011;5802;52.832;4.758;2023-05-07T11:33:54;6.85;;;5.07;;
11490;SDS011;5802;52.832;4.758;2023-05-07T11:36:22;11.23;;;5.57;;
11490;SDS011;5802;52.832;4.758;2023-05-07T11:38:50;7.10;;;5.85;;
11490;SDS011;5802;52.832;4.758;2023-05-07T11:41:16;8.35;;;5.95;;
11490;SDS011;5802;52.832;4.758;2023-05-07T11:43:57;7.40;;;5.82;;
11490;SDS011;5802;52.832;4.758;2023-05-07T11:46:24;6.43;;;5.65;;
11490;SDS011;5802;52.832;4.758;2023-05-07T11:48:54;7.20;;;5.60;;
11490;SDS011;5802;52.832;4.758;2023-05-07T11:51:22;8.48;;;5.97;;
11490;SDS011;5802;52.832;4.758;2023-05-07T11:53:51;6.38;;;5.55;;
11490;SDS011;5802;52.832;4.758;2023-05-07T11:56:18;6.50;;;5.90;;
11490;SDS011;5802;52.832;4.758;2023-05-07T11:58:46;6.70;;;6.00;;
11490;SDS011;5802;52.832;4.758;2023-05-07T12:01:14;6.70;;;6.05;;
11490;SDS011;5802;52.832;4.758;2023-05-07T12:03:43;7.00;;;6.03;;
11490;SDS011;5802;52.832;4.758;2023-05-07T12:06:11;8.02;;;6.30;;
11490;SDS011;5802;52.832;4.758;2023-05-07T12:08:39;7.78;;;6.50;;
11490;SDS011;5802;52.832;4.758;2023-05-07T12:11:07;7.95;;;6.05;;
11490;SDS011;5802;52.832;4.758;2023-05-07T12:13:36;7.47;;;5.50;;
11490;SDS011;5802;52.832;4.758;2023-05-07T12:16:03;7.10;;;5.60;;
11490;SDS011;5802;52.832;4.758;2023-05-07T12:18:31;7.05;;;5.10;;
11490;SDS011;5802;52.832;4.758;2023-05-07T12:21:00;5.90;;;5.30;;
11490;SDS011;5802;52.832;4.758;2023-05-07T12:23:27;7.22;;;5.75;;
11490;SDS011;5802;52.832;4.758;2023-05-07T12:25:54;8.30;;;5.90;;
11490;SDS011;5802;52.832;4.758;2023-05-07T12:28:21;6.88;;;5.78;;
11490;SDS011;5802;52.832;4.758;2023-05-07T12:30:48;6.55;;;5.80;;
11490;SDS011;5802;52.832;4.758;2023-05-07T12:33:16;6.68;;;5.90;;
11490;SDS011;5802;52.832;4.758;2023-05-07T12:35:47;8.07;;;6.72;;
11490;SDS011;5802;52.832;4.758;2023-05-07T12:38:15;7.57;;;6.22;;
11490;SDS011;5802;52.832;4.758;2023-05-07T12:40:43;7.47;;;6.68;;
11490;SDS011;5802;52.832;4.758;2023-05-07T12:43:15;9.43;;;7.05;;
11490;SDS011;5802;52.832;4.758;2023-05-07T12:45:43;7.38;;;6.57;;
11490;SDS011;5802;52.832;4.758;2023-05-07T12:48:10;10.93;;;7.80;;
11490;SDS011;5802;52.832;4.758;2023-05-07T12:50:38;9.68;;;8.57;;
11490;SDS011;5802;52.832;4.758;2023-05-07T12:53:05;9.05;;;8.07;;
11490;SDS011;5802;52.832;4.758;2023-05-07T12:55:39;13.10;;;9.18;;
11490;SDS011;5802;52.832;4.758;2023-05-07T12:58:07;10.27;;;8.75;;
11490;SDS011;5802;52.832;4.758;2023-05-07T13:00:34;13.10;;;8.00;;
11490;SDS011;5802;52.832;4.758;2023-05-07T13:03:02;9.00;;;7.72;;
11490;SDS011;5802;52.832;4.758;2023-05-07T13:05:29;10.75;;;8.25;;
11490;SDS011;5802;52.832;4.758;2023-05-07T13:07:56;10.52;;;8.07;;
11490;SDS011;5802;52.832;4.758;2023-05-07T13:10:23;10.20;;;8.10;;
11490;SDS011;5802;52.832;4.758;2023-05-07T13:12:51;10.13;;;8.35;;
11490;SDS011;5802;52.832;4.758;2023-05-07T13:15:18;10.05;;;7.85;;
11490;SDS011;5802;52.832;4.758;2023-05-07T13:17:45;7.68;;;6.75;;
11490;SDS011;5802;52.832;4.758;2023-05-07T13:20:12;8.75;;;6.80;;
11490;SDS011;5802;52.832;4.758;2023-05-07T13:22:39;7.47;;;6.70;;
11490;SDS011;5802;52.832;4.758;2023-05-07T13:25:06;9.27;;;7.55;;
11490;SDS011;5802;52.832;4.758;2023-05-07T13:27:33;9.15;;;6.70;;
11490;SDS011;5802;52.832;4.758;2023-05-07T13:30:03;10.38;;;8.80;;
11490;SDS011;5802;52.832;4.758;2023-05-07T13:32:30;10.18;;;8.63;;
11490;SDS011;5802;52.832;4.758;2023-05-07T13:34:57;9.90;;;8.27;;
11490;SDS011;5802;52.832;4.758;2023-05-07T13:37:24;10.93;;;8.88;;
11490;SDS011;5802;52.832;4.758;2023-05-07T13:39:50;10.52;;;8.30;;
11490;SDS011;5802;52.832;4.758;2023-05-07T13:42:17;12.18;;;7.80;;
11490;SDS011;5802;52.832;4.758;2023-05-07T13:44:44;10.57;;;9.27;;
11490;SDS011;5802;52.832;4.758;2023-05-07T13:47:12;9.57;;;8.57;;
11490;SDS011;5802;52.832;4.758;2023-05-07T13:49:39;10.68;;;8.73;;
11490;SDS011;5802;52.832;4.758;2023-05-07T13:52:05;8.98;;;7.65;;
11490;SDS011;5802;52.832;4.758;2023-05-07T13:54:32;13.02;;;9.20;;
11490;SDS011;5802;52.832;4.758;2023-05-07T13:56:58;11.13;;;8.65;;
11490;SDS011;5802;52.832;4.758;2023-05-07T13:59:25;10.10;;;8.50;;
11490;SDS011;5802;52.832;4.758;2023-05-07T14:01:52;15.90;;;8.82;;
11490;SDS011;5802;52.832;4.758;2023-05-07T14:04:21;17.52;;;9.20;;
11490;SDS011;5802;52.832;4.758;2023-05-07T14:06:47;10.80;;;8.52;;
11490;SDS011;5802;52.832;4.758;2023-05-07T14:09:14;13.00;;;9.02;;
11490;SDS011;5802;52.832;4.758;2023-05-07T14:11:41;10.93;;;8.38;;
11490;SDS011;5802;52.832;4.758;2023-05-07T14:14:08;9.27;;;6.70;;
11490;SDS011;5802;52.832;4.758;2023-05-07T14:16:35;13.35;;;5.78;;
11490;SDS011;5802;52.832;4.758;2023-05-07T14:19:02;7.95;;;5.40;;
11490;SDS011;5802;52.832;4.758;2023-05-07T14:21:30;6.95;;;5.28;;
11490;SDS011;5802;52.832;4.758;2023-05-07T14:23:57;11.80;;;5.55;;
11490;SDS011;5802;52.832;4.758;2023-05-07T14:26:24;7.28;;;4.93;;
11490;SDS011;5802;52.832;4.758;2023-05-07T14:28:52;6.80;;;4.68;;
11490;SDS011;5802;52.832;4.758;2023-05-07T14:31:22;9.40;;;4.57;;
11490;SDS011;5802;52.832;4.758;2023-05-07T14:33:49;6.28;;;4.75;;
11490;SDS011;5802;52.832;4.758;2023-05-07T14:36:15;6.80;;;5.13;;
11490;SDS011;5802;52.832;4.758;2023-05-07T14:38:43;6.57;;;4.85;;
11490;SDS011;5802;52.832;4.758;2023-05-07T14:41:10;8.10;;;4.03;;
11490;SDS011;5802;52.832;4.758;2023-05-07T14:43:37;6.05;;;4.38;;
11490;SDS011;5802;52.832;4.758;2023-05-07T14:46:03;7.53;;;4.40;;
11490;SDS011;5802;52.832;4.758;2023-05-07T14:48:30;7.20;;;4.93;;
11490;SDS011;5802;52.832;4.758;2023-05-07T14:50:57;7.47;;;4.60;;
11490;SDS011;5802;52.832;4.758;2023-05-07T14:53:23;5.03;;;3.95;;
11490;SDS011;5802;52.832;4.758;2023-05-07T14:55:52;5.10;;;4.20;;
11490;SDS011;5802;52.832;4.758;2023-05-07T14:58:18;9.50;;;4.50;;
11490;SDS011;5802;52.832;4.758;2023-05-07T15:00:45;5.93;;;3.97;;
11490;SDS011;5802;52.832;4.758;2023-05-07T15:03:12;4.30;;;3.90;;
11490;SDS011;5802;52.832;4.758;2023-05-07T15:05:38;4.72;;;4.07;;
11490;SDS011;5802;52.832;4.758;2023-05-07T15:08:06;5.30;;;3.83;;
11490;SDS011;5802;52.832;4.758;2023-05-07T15:10:34;4.60;;;3.95;;
11490;SDS011;5802;52.832;4.758;2023-05-07T15:13:07;4.68;;;3.75;;
11490;SDS011;5802;52.832;4.758;2023-05-07T15:15:34;5.95;;;4.10;;